createdAt,value
2018-05-15T07:58:37.950Z,1060.00
2018-05-15T07:59:37.657Z,1160.00
2018-05-15T08:01:30.733Z,1072.00
2018-05-15T08:02:30.753Z,1084.00
2018-05-15T08:04:23.955Z,1080.00
2018-05-15T08:05:23.872Z,1092.00
2018-05-15T08:07:16.981Z,1084.00
2018-05-15T08:08:17.000Z,1036.00
2018-05-15T08:10:10.078Z,964.00
2018-05-15T08:11:10.092Z,1008.00
2018-05-15T08:13:03.184Z,844.00
2018-05-15T08:14:03.299Z,984.00
2018-05-15T08:15:03.226Z,996.00
2018-05-15T08:16:03.250Z,972.00
2018-05-15T08:17:03.275Z,976.00
2018-05-15T08:18:03.300Z,956.00
2018-05-15T08:19:03.327Z,980.00
2018-05-15T08:20:03.347Z,948.00
2018-05-15T08:21:03.372Z,896.00
2018-05-15T08:22:03.395Z,900.00
2018-05-15T08:23:03.425Z,956.00
2018-05-15T08:24:03.448Z,976.00
2018-05-15T08:25:03.475Z,984.00
2018-05-15T08:26:03.498Z,1096.00
2018-05-15T08:27:03.534Z,992.00
2018-05-15T08:28:03.552Z,1060.00
2018-05-15T08:29:03.574Z,1116.00
2018-05-15T08:30:03.600Z,1180.00
2018-05-15T08:31:03.628Z,1216.00
2018-05-15T08:32:03.685Z,1264.00
2018-05-15T08:33:03.678Z,1212.00
2018-05-15T08:34:03.703Z,1240.00
2018-05-15T08:35:03.734Z,1228.00
2018-05-15T08:36:03.749Z,1216.00
2018-05-15T08:37:03.777Z,1164.00
2018-05-15T08:38:03.832Z,1132.00
2018-05-15T08:39:03.833Z,1124.00
2018-05-15T08:40:03.851Z,1100.00
2018-05-15T08:41:03.880Z,1068.00
2018-05-15T08:42:03.907Z,992.00
2018-05-15T08:43:03.943Z,992.00
2018-05-15T08:44:03.955Z,1012.00
2018-05-15T08:45:03.990Z,932.00
2018-05-15T08:46:04.010Z,1020.00
2018-05-15T08:47:04.034Z,1016.00
2018-05-15T08:48:04.059Z,1012.00
2018-05-15T08:49:04.088Z,1012.00
2018-05-15T08:50:04.113Z,1000.00
2018-05-15T08:51:04.137Z,1004.00
2018-05-15T08:52:04.169Z,980.00
2018-05-15T08:53:04.189Z,992.00
2018-05-15T08:54:04.230Z,996.00
2018-05-15T08:55:04.233Z,984.00
2018-05-15T08:56:04.293Z,988.00
2018-05-15T08:57:04.297Z,900.00
2018-05-15T08:58:04.336Z,892.00
2018-05-15T08:59:04.343Z,968.00
2018-05-15T09:00:04.369Z,928.00
2018-05-15T09:01:04.399Z,932.00
2018-05-15T09:02:04.428Z,944.00
2018-05-15T09:03:04.446Z,932.00
2018-05-15T09:04:04.471Z,920.00
2018-05-15T09:05:04.510Z,780.00
2018-05-15T09:06:04.540Z,764.00
2018-05-15T09:07:04.549Z,772.00
2018-05-15T09:08:04.596Z,892.00
2018-05-15T09:09:04.600Z,912.00
2018-05-15T09:10:04.654Z,936.00
2018-05-15T09:11:04.657Z,948.00
2018-05-15T09:12:04.677Z,760.00
2018-05-15T09:13:04.711Z,756.00
2018-05-15T09:14:04.739Z,772.00
2018-05-15T09:15:04.769Z,752.00
2018-05-15T09:16:04.780Z,764.00
2018-05-15T09:17:04.809Z,764.00
2018-05-15T09:18:04.842Z,756.00
2018-05-15T09:19:04.865Z,768.00
2018-05-15T09:20:04.884Z,772.00
2018-05-15T09:21:04.922Z,772.00
2018-05-15T09:22:04.934Z,756.00
2018-05-15T09:23:04.968Z,772.00
2018-05-15T09:24:04.987Z,768.00
2018-05-15T09:25:05.022Z,748.00
2018-05-15T09:26:05.043Z,756.00
2018-05-15T09:27:05.069Z,740.00
2018-05-15T09:28:05.093Z,752.00
2018-05-15T09:29:05.117Z,724.00
2018-05-15T09:30:05.145Z,716.00
2018-05-15T09:31:05.172Z,716.00
2018-05-15T09:32:05.196Z,720.00
2018-05-15T09:33:05.272Z,708.00
2018-05-15T09:34:05.248Z,712.00
2018-05-15T09:35:05.281Z,708.00
2018-05-15T09:36:05.297Z,708.00
2018-05-15T09:37:05.354Z,708.00
2018-05-15T09:38:05.348Z,700.00
2018-05-15T09:39:05.381Z,696.00
2018-05-15T09:40:05.401Z,692.00
2018-05-15T09:41:05.431Z,692.00
2018-05-15T09:42:05.452Z,680.00
2018-05-15T09:43:05.476Z,704.00
2018-05-15T09:44:05.504Z,696.00
2018-05-15T09:45:05.529Z,820.00
2018-05-15T09:46:05.557Z,840.00
2018-05-15T09:47:05.607Z,836.00
2018-05-15T09:48:05.611Z,824.00
2018-05-15T09:49:05.632Z,836.00
2018-05-15T09:50:05.659Z,844.00
2018-05-15T09:51:05.699Z,840.00
2018-05-15T09:52:05.709Z,848.00
2018-05-15T09:53:05.736Z,852.00
2018-05-15T09:54:05.760Z,836.00
2018-05-15T09:55:05.786Z,860.00
2018-05-15T09:56:05.816Z,856.00
2018-05-15T09:57:05.835Z,860.00
2018-05-15T09:58:05.864Z,820.00
2018-05-15T09:59:05.891Z,820.00
2018-05-15T10:00:05.918Z,824.00
2018-05-15T10:01:06.605Z,836.00
2018-05-15T10:02:05.973Z,828.00
2018-05-15T10:03:05.993Z,808.00
2018-05-15T10:04:06.028Z,812.00
2018-05-15T10:05:06.046Z,772.00
2018-05-15T10:06:06.068Z,800.00
2018-05-15T10:07:06.101Z,824.00
2018-05-15T10:08:06.213Z,836.00
2018-05-15T10:09:06.190Z,788.00
2018-05-15T10:10:06.206Z,752.00
2018-05-15T10:11:06.216Z,732.00
2018-05-15T10:12:06.307Z,768.00
2018-05-15T10:13:06.252Z,740.00
2018-05-15T10:14:06.328Z,748.00
2018-05-15T10:15:06.306Z,744.00
2018-05-15T10:16:06.343Z,720.00
2018-05-15T10:17:07.127Z,756.00
2018-05-15T10:18:06.399Z,684.00
2018-05-15T10:19:06.435Z,700.00
2018-05-15T10:20:06.573Z,760.00
2018-05-15T10:21:06.455Z,628.00
2018-05-15T10:22:06.482Z,744.00
2018-05-15T10:23:06.541Z,776.00
2018-05-15T10:24:06.532Z,768.00
2018-05-15T10:25:06.559Z,768.00
2018-05-15T10:26:06.584Z,644.00
2018-05-15T10:27:06.603Z,760.00
2018-05-15T10:28:07.647Z,776.00
2018-05-15T10:29:06.676Z,776.00
2018-05-15T10:30:06.683Z,772.00
2018-05-15T10:31:06.759Z,752.00
2018-05-15T10:32:06.775Z,752.00
2018-05-15T10:33:06.763Z,728.00
2018-05-15T10:34:06.783Z,744.00
2018-05-15T10:35:06.814Z,648.00
2018-05-15T10:36:06.835Z,688.00
